This is the latest recevied weather packets stored in our database for station/object GW1492. If no packets are shown the sender has not sent any weather packets the latest 10 day(s).
| Time | Temp. | Humidity | Pressure | Rain* | Wind** | Luminosity | Snow |
|---|---|---|---|---|---|---|---|
| 1776995852 | 16.67° C | 57% | 1017.2 hPa | 0 mm | - | - | - |
| 1776994047 | 17.78° C | 56% | 1016.9 hPa | 0 mm | - | - | - |
| 1776991887 | 17.22° C | 58% | 1016.9 hPa | 0 mm | - | - | - |
| 1776991517 | 17.78° C | 57% | 1016.9 hPa | 0 mm | - | - | - |
| 1776989721 | 18.89° C | 54% | 1016.5 hPa | 0 mm | - | - | - |
| 1776987588 | 20° C | 55% | 1016.5 hPa | 0 mm | - | - | - |
| 1776984315 | 21.67° C | 44% | 1016.5 hPa | 0 mm | - | - | - |
| 1776983614 | 22.22° C | 41% | 1016.5 hPa | 0 mm | - | - | - |
| 1776980724 | 23.33° C | 36% | 1016.5 hPa | 0 mm | - | - | - |
| 1776979671 | 23.33° C | 38% | 1016.5 hPa | 0 mm | - | - | - |
| 1776977129 | 23.89° C | 35% | 1017.2 hPa | 0 mm | - | - | - |
| 1776976776 | 23.33° C | 36% | 1017.2 hPa | 0 mm | - | - | - |
| 1776976053 | 23.89° C | 34% | 1017.2 hPa | 0 mm | - | - | - |
| 1776975323 | 23.33° C | 37% | 1017.2 hPa | 0 mm | - | - | - |
| 1776973873 | 24.44° C | 34% | 1017.6 hPa | 0 mm | - | - | - |
| 1776970642 | 25.56° C | 32% | 1018.6 hPa | 0 mm | - | - | - |
| 1776969951 | 26.67° C | 34% | 1018.6 hPa | 0 mm | - | - | - |
| 1776969208 | 27.22° C | 32% | 1018.9 hPa | 0 mm | - | - | - |
| 1776968863 | 26.67° C | 35% | 1018.9 hPa | 0 mm | - | - | - |
| 1776965605 | 24.44° C | 39% | 1019.9 hPa | 0 mm | - | - | - |
| 1776965250 | 23.33° C | 38% | 1019.9 hPa | 0 mm | - | - | - |
| 1776964907 | 24.44° C | 36% | 1019.6 hPa | 0 mm | - | - | - |
| 1776962021 | 23.89° C | 38% | 1020.6 hPa | 0 mm | - | - | - |
| 1776961648 | 23.33° C | 41% | 1020.9 hPa | 0 mm | - | - | - |
| 1776959499 | 23.33° C | 40% | 1020.9 hPa | 0 mm | - | - | - |
* Rain since midnight (hover to see other rain measurements)
** Current wind speed in m/s (hover to see current wind gust speed)